Date,TemperatureHighF,TemperatureAvgF,TemperatureLowF,DewpointHighF,DewpointAvgF,DewpointLowF,HumidityHigh,HumidityAvg,HumidityLow,PressureMaxIn,PressureMinIn,WindSpeedMaxMPH,WindSpeedAvgMPH,GustSpeedMaxMPH,PrecipitationSumIn
2013-6-4,78.6,74.1,71.8,60.1,59.0,57.7,66,59,49,0.00,0.00,6,1,6,0.00
2013-6-5,86.4,75.5,71.4,69.9,64.9,58.6,84,71,40,0.00,0.00,7,0,7,0.47
2013-6-6,80.2,73.5,70.3,69.9,66.9,62.2,91,80,59,0.00,0.00,9,1,9,1.14
2013-6-7,91.2,76.2,68.9,73.0,61.2,44.1,94,67,23,0.00,0.00,15,4,15,1.73
2013-6-8,93.4,78.0,68.7,67.3,57.7,43.0,90,57,19,0.00,0.00,9,1,9,0.00
2013-6-9,93.7,76.5,70.3,71.3,65.0,54.3,89,70,27,0.00,0.00,8,0,8,1.73
2013-6-10,87.1,75.2,70.3,72.8,68.8,58.3,90,81,42,0.00,0.00,16,1,16,1.42
2013-6-11,99.0,81.8,70.0,69.4,61.3,44.2,90,57,18,0.00,0.00,11,2,11,0.00
2013-6-12,103.5,86.2,72.9,71.6,59.4,38.8,86,48,12,0.00,0.00,10,1,10,0.00
2013-6-13,98.2,86.3,76.5,68.7,58.2,44.4,76,43,17,29.82,0.00,17,3,17,0.00
2013-6-14,95.4,80.3,71.4,65.6,47.9,30.3,81,38,11,30.03,29.79,13,2,13,0.00
2013-6-15,99.0,78.8,64.2,56.8,45.7,30.7,68,37,10,30.14,30.03,9,0,9,0.00
2013-6-16,99.0,80.4,66.9,61.4,51.8,41.2,71,41,16,30.17,30.06,9,1,9,0.00
2013-6-17,93.4,78.3,72.0,69.9,59.7,49.3,88,55,25,30.11,29.97,8,1,11,0.59
2013-6-18,90.1,77.5,70.7,70.2,64.9,53.8,89,68,30,30.03,29.88,11,2,16,0.08
2013-6-19,86.5,78.0,72.1,70.0,63.7,57.0,87,64,38,30.09,29.91,9,1,10,0.00
2013-6-20,97.0,78.9,66.6,66.3,51.8,36.4,88,47,14,30.20,30.09,8,1,10,0.00
2013-6-21,95.0,77.8,66.0,61.3,49.4,35.6,80,43,14,30.23,30.17,10,2,15,0.00
2013-6-22,97.0,78.2,66.7,67.8,53.6,42.0,91,49,16,30.20,30.11,10,2,11,2.40
2013-6-23,97.9,78.2,68.7,74.3,63.7,46.3,91,66,18,30.20,30.14,8,0,8,0.43
2013-6-24,95.0,80.6,72.0,72.1,62.2,45.3,88,59,20,30.23,30.14,11,1,11,0.16
2013-6-25,95.0,79.2,70.5,69.1,61.8,49.8,88,59,22,30.20,30.06,10,1,10,0.00
2013-6-26,93.2,78.8,72.0,69.7,65.8,54.0,88,67,29,30.09,29.97,10,1,10,0.31
2013-6-27,95.7,82.8,74.8,70.7,63.8,54.1,86,57,27,30.00,29.82,17,3,17,0.00
2013-6-28,100.9,83.0,72.5,67.7,60.6,47.8,85,52,18,29.85,29.67,13,3,13,0.00
2013-6-29,91.9,79.8,73.0,66.3,61.5,55.0,79,56,32,29.76,29.70,13,2,13,0.00
2013-6-30,93.0,77.5,69.6,70.9,65.7,53.2,90,71,29,29.85,29.73,12,1,14,0.31